Main page
METAR-TAF:

METAR-TAF

Airports :

Kota, India

Kota Airport

latitude: 25-09-36N, longitude: 075-50-44E, elevation: 273 m

Current weather observation

The report was made 14 hours and 37 minutes ago, at 06:00 UTC
Wind 4 kt from the West
Temperature 38°C
Humidity 26%
Pressure 1008 hPa
Visibility: 6000 m

METAR: VIKO 300600Z 27004KT 6000 NSC 38/15 Q1008 NOSIG

Time: 02:07 (20:37 UTC)


TAF: missing

Weather observations and forecasts of more than 4000 airports (METAR and TAF reports).

The available stations are represented by yellow and red dots on the map.

Hover mouse over dot to see the name of the station.

Then click to see weather observations and forecasts.

To change the map : click on the green buttons with a black cross to zoom in, on the green button with a dash to zoom out, or on the green arrows for adjacent maps.


METAR-TAF: